sensor_id;sensor_type;location;lat;lon;timestamp;P1;durP1;ratioP1;P2;durP2;ratioP2
19800;SDS011;10060;48.274;12.214;2024-02-26T00:01:54;45.27;;;23.67;;
19800;SDS011;10060;48.274;12.214;2024-02-26T00:04:56;45.47;;;24.23;;
19800;SDS011;10060;48.274;12.214;2024-02-26T00:07:58;44.57;;;23.90;;
19800;SDS011;10060;48.274;12.214;2024-02-26T00:11:00;44.17;;;21.93;;
19800;SDS011;10060;48.274;12.214;2024-02-26T00:14:04;42.73;;;23.33;;
19800;SDS011;10060;48.274;12.214;2024-02-26T00:17:06;40.20;;;23.13;;
19800;SDS011;10060;48.274;12.214;2024-02-26T00:20:10;41.17;;;21.77;;
19800;SDS011;10060;48.274;12.214;2024-02-26T00:23:14;43.30;;;21.60;;
19800;SDS011;10060;48.274;12.214;2024-02-26T00:26:16;42.00;;;21.63;;
19800;SDS011;10060;48.274;12.214;2024-02-26T00:29:20;44.87;;;21.70;;
19800;SDS011;10060;48.274;12.214;2024-02-26T00:32:23;40.70;;;21.83;;
19800;SDS011;10060;48.274;12.214;2024-02-26T00:35:25;45.00;;;23.00;;
19800;SDS011;10060;48.274;12.214;2024-02-26T00:38:27;47.00;;;23.27;;
19800;SDS011;10060;48.274;12.214;2024-02-26T00:41:29;36.83;;;22.00;;
19800;SDS011;10060;48.274;12.214;2024-02-26T00:44:33;41.43;;;22.63;;
19800;SDS011;10060;48.274;12.214;2024-02-26T00:47:35;42.07;;;22.50;;
19800;SDS011;10060;48.274;12.214;2024-02-26T00:50:37;43.33;;;22.80;;
19800;SDS011;10060;48.274;12.214;2024-02-26T00:53:39;40.17;;;22.20;;
19800;SDS011;10060;48.274;12.214;2024-02-26T00:56:42;40.87;;;22.40;;
19800;SDS011;10060;48.274;12.214;2024-02-26T00:59:45;45.50;;;22.40;;
19800;SDS011;10060;48.274;12.214;2024-02-26T01:02:48;41.10;;;22.77;;
19800;SDS011;10060;48.274;12.214;2024-02-26T01:05:51;41.97;;;23.37;;
19800;SDS011;10060;48.274;12.214;2024-02-26T01:08:53;48.47;;;25.20;;
19800;SDS011;10060;48.274;12.214;2024-02-26T01:11:55;45.50;;;24.10;;
19800;SDS011;10060;48.274;12.214;2024-02-26T01:14:58;46.13;;;24.77;;
19800;SDS011;10060;48.274;12.214;2024-02-26T01:18:01;43.27;;;22.70;;
19800;SDS011;10060;48.274;12.214;2024-02-26T01:21:03;44.50;;;22.00;;
19800;SDS011;10060;48.274;12.214;2024-02-26T01:24:07;46.87;;;24.00;;
19800;SDS011;10060;48.274;12.214;2024-02-26T01:27:09;47.33;;;23.30;;
19800;SDS011;10060;48.274;12.214;2024-02-26T01:30:12;41.80;;;23.40;;
19800;SDS011;10060;48.274;12.214;2024-02-26T01:33:16;44.47;;;23.73;;
19800;SDS011;10060;48.274;12.214;2024-02-26T01:36:18;40.13;;;22.27;;
19800;SDS011;10060;48.274;12.214;2024-02-26T01:39:21;45.57;;;24.30;;
19800;SDS011;10060;48.274;12.214;2024-02-26T01:42:23;46.63;;;24.57;;
19800;SDS011;10060;48.274;12.214;2024-02-26T01:45:26;48.40;;;24.97;;
19800;SDS011;10060;48.274;12.214;2024-02-26T01:48:28;49.63;;;24.80;;
19800;SDS011;10060;48.274;12.214;2024-02-26T01:51:30;48.37;;;25.80;;
19800;SDS011;10060;48.274;12.214;2024-02-26T01:54:34;46.87;;;25.33;;
19800;SDS011;10060;48.274;12.214;2024-02-26T01:57:37;44.67;;;24.20;;
19800;SDS011;10060;48.274;12.214;2024-02-26T02:00:40;46.27;;;24.73;;
19800;SDS011;10060;48.274;12.214;2024-02-26T02:03:42;45.70;;;24.03;;
19800;SDS011;10060;48.274;12.214;2024-02-26T02:06:45;55.83;;;25.67;;
19800;SDS011;10060;48.274;12.214;2024-02-26T02:09:47;45.00;;;25.20;;
19800;SDS011;10060;48.274;12.214;2024-02-26T02:12:49;45.10;;;25.00;;
19800;SDS011;10060;48.274;12.214;2024-02-26T02:15:53;44.27;;;24.73;;
19800;SDS011;10060;48.274;12.214;2024-02-26T02:18:55;48.43;;;23.83;;
19800;SDS011;10060;48.274;12.214;2024-02-26T02:21:58;47.60;;;23.50;;
19800;SDS011;10060;48.274;12.214;2024-02-26T02:25:00;44.87;;;25.20;;
19800;SDS011;10060;48.274;12.214;2024-02-26T02:28:04;44.57;;;23.60;;
19800;SDS011;10060;48.274;12.214;2024-02-26T02:31:06;52.43;;;24.67;;
19800;SDS011;10060;48.274;12.214;2024-02-26T02:34:09;48.13;;;24.63;;
19800;SDS011;10060;48.274;12.214;2024-02-26T02:37:12;45.30;;;23.93;;
19800;SDS011;10060;48.274;12.214;2024-02-26T02:40:14;44.67;;;24.63;;
19800;SDS011;10060;48.274;12.214;2024-02-26T02:43:16;49.30;;;25.33;;
19800;SDS011;10060;48.274;12.214;2024-02-26T02:46:18;50.00;;;24.13;;
19800;SDS011;10060;48.274;12.214;2024-02-26T02:49:21;52.07;;;24.77;;
19800;SDS011;10060;48.274;12.214;2024-02-26T02:52:25;48.13;;;25.27;;
19800;SDS011;10060;48.274;12.214;2024-02-26T02:55:27;54.00;;;25.37;;
19800;SDS011;10060;48.274;12.214;2024-02-26T02:58:29;51.57;;;25.90;;
19800;SDS011;10060;48.274;12.214;2024-02-26T03:01:31;54.83;;;26.07;;
19800;SDS011;10060;48.274;12.214;2024-02-26T03:04:33;50.00;;;25.30;;
19800;SDS011;10060;48.274;12.214;2024-02-26T03:07:37;51.53;;;26.27;;
19800;SDS011;10060;48.274;12.214;2024-02-26T03:10:39;48.77;;;24.93;;
19800;SDS011;10060;48.274;12.214;2024-02-26T03:13:42;58.33;;;26.63;;
19800;SDS011;10060;48.274;12.214;2024-02-26T03:16:45;53.83;;;25.83;;
19800;SDS011;10060;48.274;12.214;2024-02-26T03:19:47;58.53;;;26.67;;
19800;SDS011;10060;48.274;12.214;2024-02-26T03:22:54;54.87;;;26.53;;
19800;SDS011;10060;48.274;12.214;2024-02-26T03:25:56;56.43;;;26.07;;
19800;SDS011;10060;48.274;12.214;2024-02-26T03:28:58;56.67;;;26.50;;
19800;SDS011;10060;48.274;12.214;2024-02-26T03:32:02;57.33;;;26.57;;
19800;SDS011;10060;48.274;12.214;2024-02-26T03:35:05;54.13;;;26.63;;
19800;SDS011;10060;48.274;12.214;2024-02-26T03:38:08;58.60;;;27.67;;
19800;SDS011;10060;48.274;12.214;2024-02-26T03:41:10;50.63;;;25.87;;
19800;SDS011;10060;48.274;12.214;2024-02-26T03:44:12;88.63;;;26.73;;
19800;SDS011;10060;48.274;12.214;2024-02-26T03:47:15;48.77;;;24.87;;
19800;SDS011;10060;48.274;12.214;2024-02-26T03:50:18;67.70;;;25.83;;
19800;SDS011;10060;48.274;12.214;2024-02-26T03:53:21;51.70;;;24.63;;
19800;SDS011;10060;48.274;12.214;2024-02-26T03:56:23;49.83;;;24.73;;
19800;SDS011;10060;48.274;12.214;2024-02-26T03:59:25;50.67;;;25.30;;
19800;SDS011;10060;48.274;12.214;2024-02-26T04:02:27;51.10;;;24.13;;
19800;SDS011;10060;48.274;12.214;2024-02-26T04:05:29;52.53;;;24.27;;
19800;SDS011;10060;48.274;12.214;2024-02-26T04:08:33;48.37;;;24.10;;
19800;SDS011;10060;48.274;12.214;2024-02-26T04:11:35;69.60;;;26.30;;
19800;SDS011;10060;48.274;12.214;2024-02-26T04:14:37;80.77;;;25.13;;
19800;SDS011;10060;48.274;12.214;2024-02-26T04:17:39;74.60;;;25.80;;
19800;SDS011;10060;48.274;12.214;2024-02-26T04:20:41;67.37;;;24.37;;
19800;SDS011;10060;48.274;12.214;2024-02-26T04:23:45;60.77;;;25.33;;
19800;SDS011;10060;48.274;12.214;2024-02-26T04:26:49;54.93;;;23.90;;
19800;SDS011;10060;48.274;12.214;2024-02-26T04:29:51;51.30;;;23.60;;
19800;SDS011;10060;48.274;12.214;2024-02-26T04:32:53;46.73;;;24.03;;
19800;SDS011;10060;48.274;12.214;2024-02-26T04:35:55;49.80;;;22.10;;
19800;SDS011;10060;48.274;12.214;2024-02-26T04:38:58;49.33;;;23.93;;
19800;SDS011;10060;48.274;12.214;2024-02-26T04:42:01;50.10;;;24.60;;
19800;SDS011;10060;48.274;12.214;2024-02-26T04:45:04;70.17;;;23.57;;
19800;SDS011;10060;48.274;12.214;2024-02-26T04:48:07;48.50;;;23.27;;
19800;SDS011;10060;48.274;12.214;2024-02-26T04:51:09;48.77;;;23.97;;
19800;SDS011;10060;48.274;12.214;2024-02-26T04:54:12;43.90;;;22.50;;
19800;SDS011;10060;48.274;12.214;2024-02-26T04:57:14;61.43;;;24.93;;
19800;SDS011;10060;48.274;12.214;2024-02-26T05:00:18;59.80;;;24.00;;
19800;SDS011;10060;48.274;12.214;2024-02-26T05:03:20;48.53;;;25.57;;
19800;SDS011;10060;48.274;12.214;2024-02-26T05:06:22;48.90;;;24.13;;
19800;SDS011;10060;48.274;12.214;2024-02-26T05:09:26;47.87;;;24.83;;
19800;SDS011;10060;48.274;12.214;2024-02-26T05:12:28;53.97;;;24.50;;
19800;SDS011;10060;48.274;12.214;2024-02-26T05:15:30;49.80;;;24.53;;
19800;SDS011;10060;48.274;12.214;2024-02-26T05:18:32;53.33;;;24.80;;
19800;SDS011;10060;48.274;12.214;2024-02-26T05:21:34;60.60;;;26.07;;
19800;SDS011;10060;48.274;12.214;2024-02-26T05:24:38;45.73;;;23.37;;
19800;SDS011;10060;48.274;12.214;2024-02-26T05:27:41;52.53;;;25.17;;
19800;SDS011;10060;48.274;12.214;2024-02-26T05:30:43;48.50;;;24.77;;
19800;SDS011;10060;48.274;12.214;2024-02-26T05:33:45;48.57;;;25.33;;
19800;SDS011;10060;48.274;12.214;2024-02-26T05:36:47;53.10;;;26.30;;
19800;SDS011;10060;48.274;12.214;2024-02-26T05:39:51;51.27;;;23.70;;
19800;SDS011;10060;48.274;12.214;2024-02-26T05:42:54;49.77;;;23.47;;
19800;SDS011;10060;48.274;12.214;2024-02-26T05:45:56;51.53;;;24.27;;
19800;SDS011;10060;48.274;12.214;2024-02-26T05:48:58;48.07;;;23.97;;
19800;SDS011;10060;48.274;12.214;2024-02-26T05:52:00;45.73;;;23.97;;
19800;SDS011;10060;48.274;12.214;2024-02-26T05:55:04;47.17;;;24.50;;
19800;SDS011;10060;48.274;12.214;2024-02-26T05:58:06;46.50;;;23.53;;
19800;SDS011;10060;48.274;12.214;2024-02-26T06:01:09;47.13;;;24.40;;
19800;SDS011;10060;48.274;12.214;2024-02-26T06:04:11;47.10;;;24.50;;
19800;SDS011;10060;48.274;12.214;2024-02-26T06:07:13;52.10;;;25.13;;
19800;SDS011;10060;48.274;12.214;2024-02-26T06:10:17;50.17;;;25.27;;
19800;SDS011;10060;48.274;12.214;2024-02-26T06:13:22;47.50;;;26.00;;
19800;SDS011;10060;48.274;12.214;2024-02-26T06:16:24;46.40;;;24.17;;
19800;SDS011;10060;48.274;12.214;2024-02-26T06:19:26;44.27;;;23.67;;
19800;SDS011;10060;48.274;12.214;2024-02-26T06:22:29;46.40;;;24.33;;
19800;SDS011;10060;48.274;12.214;2024-02-26T06:25:33;52.60;;;24.93;;
19800;SDS011;10060;48.274;12.214;2024-02-26T06:28:35;61.23;;;25.70;;
19800;SDS011;10060;48.274;12.214;2024-02-26T06:31:40;45.83;;;24.97;;
19800;SDS011;10060;48.274;12.214;2024-02-26T06:34:43;59.13;;;25.03;;
19800;SDS011;10060;48.274;12.214;2024-02-26T06:37:45;59.63;;;24.57;;
19800;SDS011;10060;48.274;12.214;2024-02-26T06:40:48;53.00;;;24.30;;
19800;SDS011;10060;48.274;12.214;2024-02-26T06:43:50;43.57;;;24.70;;
19800;SDS011;10060;48.274;12.214;2024-02-26T06:46:52;44.67;;;24.67;;
19800;SDS011;10060;48.274;12.214;2024-02-26T06:49:55;43.63;;;23.87;;
19800;SDS011;10060;48.274;12.214;2024-02-26T06:52:58;43.43;;;23.17;;
19800;SDS011;10060;48.274;12.214;2024-02-26T06:56:01;37.50;;;22.80;;
19800;SDS011;10060;48.274;12.214;2024-02-26T06:59:03;41.00;;;22.57;;
19800;SDS011;10060;48.274;12.214;2024-02-26T07:02:05;40.50;;;23.37;;
19800;SDS011;10060;48.274;12.214;2024-02-26T07:05:08;40.13;;;22.73;;
19800;SDS011;10060;48.274;12.214;2024-02-26T07:08:10;43.13;;;23.97;;
19800;SDS011;10060;48.274;12.214;2024-02-26T07:11:13;46.40;;;25.13;;
19800;SDS011;10060;48.274;12.214;2024-02-26T07:14:16;42.67;;;23.97;;
19800;SDS011;10060;48.274;12.214;2024-02-26T07:17:18;42.97;;;24.00;;
19800;SDS011;10060;48.274;12.214;2024-02-26T07:20:20;44.73;;;24.80;;
19800;SDS011;10060;48.274;12.214;2024-02-26T07:23:22;44.07;;;25.23;;
19800;SDS011;10060;48.274;12.214;2024-02-26T07:26:25;45.20;;;25.37;;
19800;SDS011;10060;48.274;12.214;2024-02-26T07:29:29;43.40;;;25.50;;
19800;SDS011;10060;48.274;12.214;2024-02-26T07:32:32;44.53;;;23.60;;
19800;SDS011;10060;48.274;12.214;2024-02-26T07:35:34;41.50;;;24.47;;
19800;SDS011;10060;48.274;12.214;2024-02-26T07:38:36;45.13;;;24.40;;
19800;SDS011;10060;48.274;12.214;2024-02-26T07:41:40;48.67;;;25.10;;
19800;SDS011;10060;48.274;12.214;2024-02-26T07:44:46;47.80;;;25.00;;
19800;SDS011;10060;48.274;12.214;2024-02-26T07:47:48;50.10;;;24.63;;
19800;SDS011;10060;48.274;12.214;2024-02-26T07:50:51;47.13;;;25.40;;
19800;SDS011;10060;48.274;12.214;2024-02-26T07:53:54;49.47;;;25.20;;
19800;SDS011;10060;48.274;12.214;2024-02-26T07:56:57;45.30;;;24.23;;
19800;SDS011;10060;48.274;12.214;2024-02-26T07:59:59;43.57;;;24.20;;
19800;SDS011;10060;48.274;12.214;2024-02-26T08:03:01;42.33;;;24.83;;
19800;SDS011;10060;48.274;12.214;2024-02-26T08:06:04;44.63;;;23.60;;
19800;SDS011;10060;48.274;12.214;2024-02-26T08:09:06;36.63;;;22.47;;
19800;SDS011;10060;48.274;12.214;2024-02-26T08:12:09;39.63;;;22.17;;
19800;SDS011;10060;48.274;12.214;2024-02-26T08:15:12;43.40;;;23.33;;
19800;SDS011;10060;48.274;12.214;2024-02-26T08:18:14;42.60;;;22.83;;
19800;SDS011;10060;48.274;12.214;2024-02-26T08:21:16;35.87;;;21.10;;
19800;SDS011;10060;48.274;12.214;2024-02-26T08:24:18;41.93;;;22.27;;
19800;SDS011;10060;48.274;12.214;2024-02-26T08:27:21;37.90;;;21.17;;
19800;SDS011;10060;48.274;12.214;2024-02-26T08:30:24;34.13;;;20.57;;
19800;SDS011;10060;48.274;12.214;2024-02-26T08:33:26;30.00;;;19.33;;
19800;SDS011;10060;48.274;12.214;2024-02-26T08:36:28;35.73;;;19.57;;
19800;SDS011;10060;48.274;12.214;2024-02-26T08:39:30;30.90;;;17.57;;
19800;SDS011;10060;48.274;12.214;2024-02-26T08:42:34;26.83;;;17.87;;
19800;SDS011;10060;48.274;12.214;2024-02-26T08:45:36;29.90;;;16.90;;
19800;SDS011;10060;48.274;12.214;2024-02-26T08:48:38;24.73;;;16.67;;
19800;SDS011;10060;48.274;12.214;2024-02-26T08:51:41;27.90;;;16.73;;
19800;SDS011;10060;48.274;12.214;2024-02-26T08:54:43;25.70;;;15.07;;
19800;SDS011;10060;48.274;12.214;2024-02-26T08:57:47;27.03;;;15.20;;
19800;SDS011;10060;48.274;12.214;2024-02-26T09:00:49;21.80;;;14.70;;
19800;SDS011;10060;48.274;12.214;2024-02-26T09:03:51;21.53;;;13.10;;
19800;SDS011;10060;48.274;12.214;2024-02-26T09:06:54;24.83;;;13.53;;
19800;SDS011;10060;48.274;12.214;2024-02-26T09:09:56;21.97;;;13.60;;
19800;SDS011;10060;48.274;12.214;2024-02-26T09:12:59;22.80;;;12.77;;
19800;SDS011;10060;48.274;12.214;2024-02-26T09:16:02;19.87;;;12.30;;
19800;SDS011;10060;48.274;12.214;2024-02-26T09:19:04;19.60;;;13.23;;
19800;SDS011;10060;48.274;12.214;2024-02-26T09:22:06;22.93;;;13.30;;
19800;SDS011;10060;48.274;12.214;2024-02-26T09:25:08;20.33;;;12.50;;
19800;SDS011;10060;48.274;12.214;2024-02-26T09:28:12;18.83;;;12.00;;
19800;SDS011;10060;48.274;12.214;2024-02-26T09:31:17;18.57;;;12.30;;
19800;SDS011;10060;48.274;12.214;2024-02-26T09:34:19;21.40;;;13.40;;
19800;SDS011;10060;48.274;12.214;2024-02-26T09:37:21;22.73;;;13.40;;
19800;SDS011;10060;48.274;12.214;2024-02-26T09:40:23;18.50;;;11.93;;
19800;SDS011;10060;48.274;12.214;2024-02-26T09:43:31;19.60;;;12.33;;
19800;SDS011;10060;48.274;12.214;2024-02-26T09:46:36;21.17;;;13.00;;
19800;SDS011;10060;48.274;12.214;2024-02-26T09:49:38;21.57;;;12.00;;
19800;SDS011;10060;48.274;12.214;2024-02-26T09:52:41;18.37;;;12.10;;
19800;SDS011;10060;48.274;12.214;2024-02-26T09:55:43;18.77;;;12.07;;
19800;SDS011;10060;48.274;12.214;2024-02-26T09:58:47;19.73;;;11.90;;
19800;SDS011;10060;48.274;12.214;2024-02-26T10:01:53;19.47;;;12.10;;
19800;SDS011;10060;48.274;12.214;2024-02-26T10:04:55;20.33;;;11.93;;
19800;SDS011;10060;48.274;12.214;2024-02-26T10:08:01;21.03;;;12.30;;
19800;SDS011;10060;48.274;12.214;2024-02-26T10:11:03;21.67;;;12.67;;
19800;SDS011;10060;48.274;12.214;2024-02-26T10:14:08;16.80;;;11.50;;
19800;SDS011;10060;48.274;12.214;2024-02-26T10:17:10;18.20;;;11.10;;
19800;SDS011;10060;48.274;12.214;2024-02-26T10:20:12;15.40;;;10.97;;
19800;SDS011;10060;48.274;12.214;2024-02-26T10:23:15;18.30;;;11.07;;
19800;SDS011;10060;48.274;12.214;2024-02-26T10:26:18;15.53;;;10.10;;
19800;SDS011;10060;48.274;12.214;2024-02-26T10:29:23;13.97;;;9.80;;
19800;SDS011;10060;48.274;12.214;2024-02-26T10:32:25;16.13;;;10.33;;
19800;SDS011;10060;48.274;12.214;2024-02-26T10:35:27;14.53;;;10.00;;
19800;SDS011;10060;48.274;12.214;2024-02-26T10:38:31;13.60;;;9.63;;
19800;SDS011;10060;48.274;12.214;2024-02-26T10:41:33;15.80;;;10.43;;
19800;SDS011;10060;48.274;12.214;2024-02-26T10:44:37;17.67;;;10.87;;
19800;SDS011;10060;48.274;12.214;2024-02-26T10:47:42;16.37;;;9.67;;
19800;SDS011;10060;48.274;12.214;2024-02-26T10:50:45;14.17;;;9.40;;
19800;SDS011;10060;48.274;12.214;2024-02-26T10:53:48;15.80;;;10.10;;
19800;SDS011;10060;48.274;12.214;2024-02-26T10:56:53;14.47;;;9.40;;
19800;SDS011;10060;48.274;12.214;2024-02-26T10:59:57;15.13;;;8.70;;
19800;SDS011;10060;48.274;12.214;2024-02-26T11:02:59;19.03;;;8.83;;
19800;SDS011;10060;48.274;12.214;2024-02-26T11:06:03;13.70;;;8.23;;
19800;SDS011;10060;48.274;12.214;2024-02-26T11:09:05;14.13;;;9.40;;
19800;SDS011;10060;48.274;12.214;2024-02-26T11:12:08;13.93;;;9.10;;
19800;SDS011;10060;48.274;12.214;2024-02-26T11:15:14;12.57;;;8.53;;
19800;SDS011;10060;48.274;12.214;2024-02-26T11:18:17;13.73;;;8.67;;
19800;SDS011;10060;48.274;12.214;2024-02-26T11:21:22;14.47;;;8.30;;
19800;SDS011;10060;48.274;12.214;2024-02-26T11:24:30;10.80;;;7.23;;
19800;SDS011;10060;48.274;12.214;2024-02-26T11:27:32;11.57;;;7.03;;
19800;SDS011;10060;48.274;12.214;2024-02-26T11:30:38;11.33;;;7.63;;
19800;SDS011;10060;48.274;12.214;2024-02-26T11:33:41;10.30;;;6.70;;
19800;SDS011;10060;48.274;12.214;2024-02-26T11:36:43;9.80;;;6.60;;
19800;SDS011;10060;48.274;12.214;2024-02-26T11:39:46;9.40;;;6.87;;
19800;SDS011;10060;48.274;12.214;2024-02-26T11:42:48;10.17;;;6.43;;
19800;SDS011;10060;48.274;12.214;2024-02-26T11:45:53;10.73;;;7.43;;
19800;SDS011;10060;48.274;12.214;2024-02-26T11:48:59;9.50;;;6.73;;
19800;SDS011;10060;48.274;12.214;2024-02-26T11:52:04;12.37;;;6.93;;
19800;SDS011;10060;48.274;12.214;2024-02-26T11:55:07;10.63;;;6.90;;
19800;SDS011;10060;48.274;12.214;2024-02-26T11:58:09;10.97;;;7.77;;
19800;SDS011;10060;48.274;12.214;2024-02-26T12:04:33;10.63;;;6.20;;
19800;SDS011;10060;48.274;12.214;2024-02-26T12:07:35;6.87;;;5.33;;
19800;SDS011;10060;48.274;12.214;2024-02-26T12:10:38;7.93;;;5.80;;
19800;SDS011;10060;48.274;12.214;2024-02-26T12:13:40;7.27;;;5.27;;
19800;SDS011;10060;48.274;12.214;2024-02-26T12:16:43;6.50;;;4.93;;
19800;SDS011;10060;48.274;12.214;2024-02-26T12:19:46;10.37;;;5.40;;
19800;SDS011;10060;48.274;12.214;2024-02-26T12:22:49;7.83;;;4.67;;
19800;SDS011;10060;48.274;12.214;2024-02-26T12:25:52;6.57;;;4.70;;
19800;SDS011;10060;48.274;12.214;2024-02-26T12:28:55;5.33;;;4.20;;
19800;SDS011;10060;48.274;12.214;2024-02-26T12:31:57;6.87;;;3.90;;
19800;SDS011;10060;48.274;12.214;2024-02-26T12:35:01;6.17;;;4.70;;
19800;SDS011;10060;48.274;12.214;2024-02-26T12:38:03;6.87;;;4.60;;
19800;SDS011;10060;48.274;12.214;2024-02-26T12:41:06;6.57;;;4.23;;
19800;SDS011;10060;48.274;12.214;2024-02-26T12:44:08;5.20;;;4.00;;
19800;SDS011;10060;48.274;12.214;2024-02-26T12:47:10;6.37;;;3.60;;
19800;SDS011;10060;48.274;12.214;2024-02-26T12:50:18;4.50;;;3.30;;
19800;SDS011;10060;48.274;12.214;2024-02-26T12:53:20;3.30;;;3.00;;
19800;SDS011;10060;48.274;12.214;2024-02-26T12:56:23;3.80;;;2.70;;
19800;SDS011;10060;48.274;12.214;2024-02-26T12:59:25;4.87;;;2.70;;
19800;SDS011;10060;48.274;12.214;2024-02-26T13:02:27;4.70;;;2.83;;
19800;SDS011;10060;48.274;12.214;2024-02-26T13:05:31;8.00;;;3.80;;
19800;SDS011;10060;48.274;12.214;2024-02-26T13:08:34;5.80;;;3.67;;
19800;SDS011;10060;48.274;12.214;2024-02-26T13:11:36;5.47;;;2.80;;
19800;SDS011;10060;48.274;12.214;2024-02-26T13:14:41;4.60;;;2.90;;
19800;SDS011;10060;48.274;12.214;2024-02-26T13:17:43;5.47;;;3.03;;
19800;SDS011;10060;48.274;12.214;2024-02-26T13:20:47;4.37;;;2.90;;
19800;SDS011;10060;48.274;12.214;2024-02-26T13:23:52;3.33;;;2.67;;
19800;SDS011;10060;48.274;12.214;2024-02-26T13:26:55;5.10;;;2.77;;
19800;SDS011;10060;48.274;12.214;2024-02-26T13:30:03;4.00;;;2.67;;
19800;SDS011;10060;48.274;12.214;2024-02-26T13:33:09;2.87;;;2.40;;
19800;SDS011;10060;48.274;12.214;2024-02-26T13:36:13;2.53;;;2.33;;
19800;SDS011;10060;48.274;12.214;2024-02-26T13:39:21;6.50;;;2.83;;
19800;SDS011;10060;48.274;12.214;2024-02-26T13:42:23;3.93;;;2.83;;
19800;SDS011;10060;48.274;12.214;2024-02-26T13:45:26;3.67;;;2.90;;
19800;SDS011;10060;48.274;12.214;2024-02-26T13:48:28;2.53;;;2.30;;
19800;SDS011;10060;48.274;12.214;2024-02-26T13:51:32;2.20;;;2.00;;
19800;SDS011;10060;48.274;12.214;2024-02-26T13:54:35;3.30;;;2.33;;
19800;SDS011;10060;48.274;12.214;2024-02-26T13:57:38;3.63;;;2.43;;
19800;SDS011;10060;48.274;12.214;2024-02-26T14:00:40;2.87;;;2.20;;
19800;SDS011;10060;48.274;12.214;2024-02-26T14:03:42;2.17;;;1.97;;
19800;SDS011;10060;48.274;12.214;2024-02-26T14:06:46;3.47;;;2.00;;
19800;SDS011;10060;48.274;12.214;2024-02-26T14:09:48;8.47;;;2.10;;
19800;SDS011;10060;48.274;12.214;2024-02-26T14:12:51;3.13;;;2.00;;
19800;SDS011;10060;48.274;12.214;2024-02-26T14:15:53;2.37;;;2.07;;
19800;SDS011;10060;48.274;12.214;2024-02-26T14:18:56;2.60;;;1.70;;
19800;SDS011;10060;48.274;12.214;2024-02-26T14:21:59;2.93;;;2.00;;
19800;SDS011;10060;48.274;12.214;2024-02-26T14:25:01;1.77;;;1.60;;
19800;SDS011;10060;48.274;12.214;2024-02-26T14:28:04;3.83;;;2.10;;
19800;SDS011;10060;48.274;12.214;2024-02-26T14:31:06;2.97;;;1.97;;
19800;SDS011;10060;48.274;12.214;2024-02-26T14:34:10;2.30;;;1.67;;
19800;SDS011;10060;48.274;12.214;2024-02-26T14:37:14;3.33;;;1.90;;
19800;SDS011;10060;48.274;12.214;2024-02-26T14:40:16;2.87;;;2.03;;
19800;SDS011;10060;48.274;12.214;2024-02-26T14:43:18;6.37;;;2.23;;
19800;SDS011;10060;48.274;12.214;2024-02-26T14:46:20;3.37;;;2.13;;
19800;SDS011;10060;48.274;12.214;2024-02-26T14:49:22;3.23;;;1.83;;
19800;SDS011;10060;48.274;12.214;2024-02-26T14:52:26;1.80;;;1.70;;
19800;SDS011;10060;48.274;12.214;2024-02-26T14:55:28;2.23;;;1.97;;
19800;SDS011;10060;48.274;12.214;2024-02-26T14:58:30;1.97;;;1.77;;
19800;SDS011;10060;48.274;12.214;2024-02-26T15:01:32;2.97;;;2.20;;
19800;SDS011;10060;48.274;12.214;2024-02-26T15:04:34;3.77;;;3.10;;
19800;SDS011;10060;48.274;12.214;2024-02-26T15:07:38;2.73;;;2.23;;
19800;SDS011;10060;48.274;12.214;2024-02-26T15:10:41;4.27;;;3.47;;
19800;SDS011;10060;48.274;12.214;2024-02-26T15:13:47;4.50;;;3.17;;
19800;SDS011;10060;48.274;12.214;2024-02-26T15:16:50;5.00;;;4.50;;
19800;SDS011;10060;48.274;12.214;2024-02-26T15:19:52;4.47;;;3.60;;
19800;SDS011;10060;48.274;12.214;2024-02-26T15:22:58;7.50;;;4.33;;
19800;SDS011;10060;48.274;12.214;2024-02-26T15:26:00;6.70;;;3.87;;
19800;SDS011;10060;48.274;12.214;2024-02-26T15:29:03;3.47;;;3.17;;
19800;SDS011;10060;48.274;12.214;2024-02-26T15:32:06;6.07;;;3.50;;
19800;SDS011;10060;48.274;12.214;2024-02-26T15:35:08;7.60;;;3.40;;
19800;SDS011;10060;48.274;12.214;2024-02-26T15:38:12;4.33;;;3.00;;
19800;SDS011;10060;48.274;12.214;2024-02-26T15:41:14;6.17;;;3.63;;
19800;SDS011;10060;48.274;12.214;2024-02-26T15:44:17;4.17;;;3.37;;
19800;SDS011;10060;48.274;12.214;2024-02-26T15:47:19;4.73;;;3.40;;
19800;SDS011;10060;48.274;12.214;2024-02-26T15:50:21;6.80;;;3.57;;
19800;SDS011;10060;48.274;12.214;2024-02-26T15:53:25;5.07;;;3.90;;
19800;SDS011;10060;48.274;12.214;2024-02-26T15:56:27;3.47;;;3.17;;
19800;SDS011;10060;48.274;12.214;2024-02-26T15:59:29;4.07;;;3.33;;
19800;SDS011;10060;48.274;12.214;2024-02-26T16:02:31;4.50;;;3.50;;
19800;SDS011;10060;48.274;12.214;2024-02-26T16:05:33;5.67;;;3.90;;
19800;SDS011;10060;48.274;12.214;2024-02-26T16:08:37;7.00;;;4.13;;
19800;SDS011;10060;48.274;12.214;2024-02-26T16:11:40;6.33;;;3.60;;
19800;SDS011;10060;48.274;12.214;2024-02-26T16:14:44;6.07;;;4.07;;
19800;SDS011;10060;48.274;12.214;2024-02-26T16:17:48;12.67;;;5.03;;
19800;SDS011;10060;48.274;12.214;2024-02-26T16:20:51;5.23;;;3.80;;
19800;SDS011;10060;48.274;12.214;2024-02-26T16:23:57;6.20;;;3.67;;
19800;SDS011;10060;48.274;12.214;2024-02-26T16:26:59;6.30;;;3.17;;
19800;SDS011;10060;48.274;12.214;2024-02-26T16:30:01;4.63;;;3.50;;
19800;SDS011;10060;48.274;12.214;2024-02-26T16:33:05;6.13;;;4.00;;
19800;SDS011;10060;48.274;12.214;2024-02-26T16:36:08;6.40;;;3.93;;
19800;SDS011;10060;48.274;12.214;2024-02-26T16:39:13;5.13;;;3.27;;
19800;SDS011;10060;48.274;12.214;2024-02-26T16:42:17;4.17;;;3.30;;
19800;SDS011;10060;48.274;12.214;2024-02-26T16:45:19;4.53;;;3.53;;
19800;SDS011;10060;48.274;12.214;2024-02-26T16:48:21;6.10;;;3.57;;
19800;SDS011;10060;48.274;12.214;2024-02-26T16:51:24;4.37;;;3.00;;
19800;SDS011;10060;48.274;12.214;2024-02-26T16:54:27;4.83;;;3.30;;
19800;SDS011;10060;48.274;12.214;2024-02-26T16:57:29;5.37;;;3.20;;
19800;SDS011;10060;48.274;12.214;2024-02-26T17:00:31;3.77;;;2.53;;
19800;SDS011;10060;48.274;12.214;2024-02-26T17:03:34;3.60;;;2.80;;
19800;SDS011;10060;48.274;12.214;2024-02-26T17:06:36;6.07;;;2.90;;
19800;SDS011;10060;48.274;12.214;2024-02-26T17:09:40;3.73;;;3.00;;
19800;SDS011;10060;48.274;12.214;2024-02-26T17:12:42;7.97;;;3.53;;
19800;SDS011;10060;48.274;12.214;2024-02-26T17:15:45;3.83;;;3.20;;
19800;SDS011;10060;48.274;12.214;2024-02-26T17:18:47;4.27;;;3.17;;
19800;SDS011;10060;48.274;12.214;2024-02-26T17:21:50;4.23;;;3.10;;
19800;SDS011;10060;48.274;12.214;2024-02-26T17:24:54;4.80;;;3.47;;
19800;SDS011;10060;48.274;12.214;2024-02-26T17:27:57;3.97;;;3.10;;
19800;SDS011;10060;48.274;12.214;2024-02-26T17:30:59;4.57;;;3.20;;
19800;SDS011;10060;48.274;12.214;2024-02-26T17:34:01;3.70;;;3.30;;
19800;SDS011;10060;48.274;12.214;2024-02-26T17:37:03;4.20;;;3.47;;
19800;SDS011;10060;48.274;12.214;2024-02-26T17:40:07;4.10;;;2.97;;
19800;SDS011;10060;48.274;12.214;2024-02-26T17:43:09;4.97;;;3.33;;
19800;SDS011;10060;48.274;12.214;2024-02-26T17:46:12;4.20;;;2.90;;
19800;SDS011;10060;48.274;12.214;2024-02-26T17:49:14;4.57;;;3.37;;